Landenberg, Pennsylvania
Current Conditions -  °F | °C
As of 9:51 AM on Thursday 30 Oct 2014 (Local Time) from KILG Reporting Station
Few Clouds Few Clouds  
Wind Chill: 51°   Ceiling: Unl
Heat Index: 51°   Visibility: 10mi
Dew Point: 45°   Wind: 7mph
Humidity: 80%   Direction: 340°NNW
Pressure: 30.04"   Gusts: NA
Location:  39.78°N, 75.77°W
Report Text: KILG 301351Z 34006KT 10SM FEW070 11/07 A3004 RMK AO2 SLP172 T01060072
Loading
Personal Weather Stations






























Interactive Weather Map
Tropical Storm Tracking
New forecast layout! Learn more

10-Day Weather Forecast

Advertisements
Track Severe Weather on mobile